createdAt,value
2018-06-15T00:00:37.778Z,12.90
2018-06-15T00:03:07.837Z,12.80
2018-06-15T00:05:37.564Z,12.80
2018-06-15T00:10:39.129Z,12.80
2018-06-15T00:13:09.768Z,12.70
2018-06-15T00:15:40.696Z,12.70
2018-06-15T00:18:10.676Z,12.70
2018-06-15T00:20:41.077Z,12.60
2018-06-15T00:23:11.188Z,12.70
2018-06-15T00:25:42.061Z,12.70
2018-06-15T00:28:14.213Z,12.70
2018-06-15T00:30:45.065Z,12.70
2018-06-15T00:33:14.621Z,12.70
2018-06-15T00:35:43.516Z,12.60
2018-06-15T00:38:13.898Z,12.60
2018-06-15T00:40:44.266Z,12.60
2018-06-15T00:43:17.415Z,12.60
2018-06-15T00:45:47.877Z,12.60
2018-06-15T00:48:18.829Z,12.60
2018-06-15T00:50:49.645Z,12.60
2018-06-15T00:53:21.074Z,12.60
2018-06-15T00:55:52.160Z,12.60
2018-06-15T00:58:22.267Z,12.60
2018-06-15T01:00:54.285Z,12.50
2018-06-15T01:03:24.854Z,12.50
2018-06-15T01:05:55.183Z,12.50
2018-06-15T01:08:26.685Z,12.50
2018-06-15T01:10:58.837Z,12.40
2018-06-15T01:13:28.776Z,12.40
2018-06-15T01:16:01.088Z,12.40
2018-06-15T01:18:32.790Z,12.30
2018-06-15T01:21:02.653Z,12.20
2018-06-15T01:23:33.605Z,12.20
2018-06-15T01:26:05.102Z,12.10
2018-06-15T01:28:35.686Z,12.00
2018-06-15T01:31:07.299Z,12.00
2018-06-15T01:33:39.801Z,12.00
2018-06-15T01:36:11.557Z,11.90
2018-06-15T01:38:42.575Z,11.90
2018-06-15T01:41:14.812Z,11.80
2018-06-15T01:43:47.982Z,11.80
2018-06-15T01:46:19.268Z,11.80
2018-06-15T01:48:49.896Z,11.70
2018-06-15T01:51:19.928Z,11.70
2018-06-15T01:56:21.571Z,11.70
2018-06-15T01:58:52.363Z,11.70
2018-06-15T02:01:23.800Z,11.60
2018-06-15T02:03:53.701Z,11.70
2018-06-15T02:06:25.819Z,11.70
2018-06-15T02:08:56.297Z,11.80
2018-06-15T02:11:28.666Z,11.70
2018-06-15T02:13:59.703Z,11.70
2018-06-15T02:16:29.533Z,11.70
2018-06-15T02:18:59.849Z,11.70
2018-06-15T02:21:29.210Z,11.70
2018-06-15T02:23:58.880Z,11.80
2018-06-15T02:26:29.428Z,11.80
2018-06-15T02:29:00.875Z,11.80
2018-06-15T02:31:30.897Z,11.80
2018-06-15T02:34:01.435Z,11.90
2018-06-15T02:36:32.672Z,12.00
2018-06-15T02:39:03.050Z,12.00
2018-06-15T02:41:34.751Z,12.00
2018-06-15T02:44:04.788Z,12.00
2018-06-15T02:46:36.167Z,12.00
2018-06-15T02:49:07.544Z,12.00
2018-06-15T02:51:37.551Z,12.00
2018-06-15T02:54:07.987Z,12.00
2018-06-15T02:56:37.847Z,11.90
2018-06-15T02:59:08.274Z,12.00
2018-06-15T03:01:37.810Z,12.00
2018-06-15T03:04:07.388Z,12.00
2018-06-15T03:06:37.202Z,11.90
2018-06-15T03:09:07.208Z,11.90
2018-06-15T03:11:37.529Z,11.80
2018-06-15T03:14:07.015Z,11.80
2018-06-15T03:16:36.249Z,11.70
2018-06-15T03:19:06.280Z,11.60
2018-06-15T03:21:40.366Z,11.60
2018-06-15T03:24:10.462Z,11.60
2018-06-15T03:26:44.665Z,11.60
2018-06-15T03:29:15.761Z,11.60
2018-06-15T03:31:45.663Z,11.60
2018-06-15T03:34:18.541Z,11.80
2018-06-15T03:36:48.593Z,11.80
2018-06-15T03:39:18.570Z,11.70
2018-06-15T03:41:51.105Z,11.70
2018-06-15T03:44:24.021Z,11.70
2018-06-15T03:46:57.347Z,11.70
2018-06-15T03:49:27.162Z,11.60
2018-06-15T03:51:57.227Z,11.60
2018-06-15T03:54:27.822Z,11.60
2018-06-15T03:57:01.406Z,11.60
2018-06-15T03:59:32.612Z,11.60
2018-06-15T04:02:03.663Z,11.60
2018-06-15T04:04:35.851Z,11.50
2018-06-15T04:07:05.677Z,11.60
2018-06-15T04:09:34.994Z,11.60
2018-06-15T04:12:04.341Z,11.60
2018-06-15T04:14:33.413Z,11.60
2018-06-15T04:17:02.469Z,11.60
2018-06-15T04:19:32.776Z,11.60
2018-06-15T04:22:01.874Z,11.50
2018-06-15T04:24:31.356Z,11.50
2018-06-15T04:27:00.683Z,11.50
2018-06-15T04:29:30.799Z,11.60
2018-06-15T04:32:00.874Z,11.70
2018-06-15T04:34:29.742Z,11.70
2018-06-15T04:36:59.187Z,11.70
2018-06-15T04:39:28.987Z,11.70
2018-06-15T04:41:59.208Z,11.70
2018-06-15T04:44:28.717Z,11.60
2018-06-15T04:46:58.542Z,11.60
2018-06-15T04:49:28.672Z,11.70
2018-06-15T04:51:59.281Z,11.70
2018-06-15T04:54:28.814Z,11.80
2018-06-15T04:56:58.819Z,11.90
2018-06-15T04:59:28.850Z,11.90
2018-06-15T05:01:57.701Z,11.90
2018-06-15T05:04:27.876Z,11.90
2018-06-15T05:06:56.690Z,12.00
2018-06-15T05:09:26.424Z,12.00
2018-06-15T05:11:55.474Z,12.10
2018-06-15T05:14:24.559Z,12.10
2018-06-15T05:16:53.831Z,12.10
2018-06-15T05:19:23.937Z,12.20
2018-06-15T05:21:54.060Z,12.20
2018-06-15T05:24:23.302Z,12.30
2018-06-15T05:26:52.425Z,12.30
2018-06-15T05:29:22.360Z,12.40
2018-06-15T05:31:51.582Z,12.40
2018-06-15T05:34:20.585Z,12.50
2018-06-15T05:36:50.516Z,12.60
2018-06-15T05:39:19.683Z,12.60
2018-06-15T05:41:48.971Z,12.70
2018-06-15T05:44:18.015Z,12.70
2018-06-15T05:46:47.488Z,12.80
2018-06-15T05:49:16.595Z,12.90
2018-06-15T05:51:46.173Z,12.90
2018-06-15T05:54:14.966Z,13.00
2018-06-15T05:56:43.983Z,13.10
2018-06-15T05:59:14.011Z,13.20
2018-06-15T06:01:43.997Z,13.30
2018-06-15T06:04:13.802Z,13.40
2018-06-15T06:06:43.249Z,13.50
2018-06-15T06:09:12.573Z,13.60
2018-06-15T06:11:42.112Z,13.60
2018-06-15T06:14:12.007Z,13.70
2018-06-15T06:16:41.170Z,13.80
2018-06-15T06:19:10.609Z,13.90
2018-06-15T06:21:39.849Z,14.00
2018-06-15T06:24:09.659Z,14.10
2018-06-15T06:26:39.385Z,14.20
2018-06-15T06:29:08.308Z,14.30
2018-06-15T06:31:37.547Z,14.40
2018-06-15T06:34:07.214Z,14.50
2018-06-15T06:36:37.173Z,14.60
2018-06-15T06:39:08.387Z,14.70
2018-06-15T06:41:37.680Z,14.90
2018-06-15T06:44:07.581Z,15.00
2018-06-15T06:46:37.693Z,15.10
2018-06-15T06:49:07.314Z,15.20
2018-06-15T06:51:36.363Z,15.30
2018-06-15T06:54:06.355Z,15.30
2018-06-15T06:56:35.870Z,15.40
2018-06-15T06:59:05.083Z,15.50
2018-06-15T07:01:35.607Z,15.70
2018-06-15T07:04:04.476Z,15.80
2018-06-15T07:06:33.482Z,15.90
2018-06-15T07:09:02.991Z,16.00
2018-06-15T07:11:32.724Z,16.10
2018-06-15T07:14:02.339Z,16.20
2018-06-15T07:16:31.621Z,16.30
2018-06-15T07:19:00.698Z,16.40
2018-06-15T07:21:30.057Z,16.50
2018-06-15T07:23:59.435Z,16.70
2018-06-15T07:26:28.203Z,16.80
2018-06-15T07:28:57.321Z,16.90
2018-06-15T07:31:26.311Z,16.90
2018-06-15T07:33:55.294Z,17.00
2018-06-15T07:36:24.144Z,17.10
2018-06-15T07:38:53.158Z,17.20
2018-06-15T07:41:23.067Z,17.40
2018-06-15T07:43:52.863Z,17.50
2018-06-15T07:46:21.795Z,17.60
2018-06-15T07:48:51.846Z,17.70
2018-06-15T07:51:21.382Z,17.90
2018-06-15T07:53:51.528Z,17.80
2018-06-15T07:56:21.110Z,17.50
2018-06-15T07:58:50.552Z,17.80
2018-06-15T08:01:19.565Z,18.10
2018-06-15T08:03:54.025Z,18.60
2018-06-15T08:06:23.910Z,19.30
2018-06-15T08:08:53.245Z,20.10
2018-06-15T08:11:22.054Z,20.50
2018-06-15T08:13:51.713Z,21.90
2018-06-15T08:16:21.259Z,22.80
2018-06-15T08:18:50.126Z,23.70
2018-06-15T08:21:19.195Z,24.40
2018-06-15T08:23:48.671Z,25.50
2018-06-15T08:26:19.361Z,24.50
2018-06-15T08:28:49.231Z,25.50
2018-06-15T08:31:18.471Z,26.20
2018-06-15T08:33:47.823Z,27.00
2018-06-15T08:36:17.028Z,27.80
2018-06-15T08:38:46.038Z,28.50
2018-06-15T08:41:14.843Z,29.00
2018-06-15T08:43:44.988Z,29.10
2018-06-15T08:46:14.138Z,27.80
2018-06-15T08:48:44.077Z,28.60
2018-06-15T08:51:13.173Z,28.80
2018-06-15T08:53:42.321Z,29.60
2018-06-15T08:56:11.185Z,30.60
2018-06-15T08:58:41.001Z,30.30
2018-06-15T09:01:10.601Z,30.30
2018-06-15T09:03:41.184Z,30.50
2018-06-15T09:06:11.255Z,29.80
2018-06-15T09:08:40.864Z,30.00
2018-06-15T09:11:10.129Z,29.90
2018-06-15T09:13:39.912Z,30.30
2018-06-15T09:16:09.860Z,29.90
2018-06-15T09:18:38.729Z,29.90
2018-06-15T09:21:08.293Z,31.10
2018-06-15T09:23:38.588Z,30.70
2018-06-15T09:26:08.109Z,31.40
2018-06-15T09:28:37.236Z,31.80
2018-06-15T09:31:06.203Z,30.80
2018-06-15T09:33:35.471Z,30.60
2018-06-15T09:36:04.761Z,31.00
2018-06-15T09:38:34.069Z,31.20
2018-06-15T09:43:32.191Z,30.60
2018-06-15T09:46:02.525Z,31.30
2018-06-15T09:48:31.928Z,31.90
2018-06-15T09:51:01.321Z,31.50
2018-06-15T09:53:30.823Z,29.30
2018-06-15T09:56:00.358Z,29.90
2018-06-15T09:58:29.641Z,29.70
2018-06-15T10:01:04.210Z,29.50
2018-06-15T10:03:33.145Z,30.30
2018-06-15T10:06:02.509Z,30.60
2018-06-15T10:08:32.322Z,31.10
2018-06-15T10:11:02.265Z,31.20
2018-06-15T10:13:32.087Z,31.00
2018-06-15T10:16:01.090Z,30.70
2018-06-15T10:18:30.827Z,30.80
2018-06-15T10:21:00.067Z,30.60
2018-06-15T10:23:29.021Z,30.60
2018-06-15T10:25:58.986Z,30.30
2018-06-15T10:28:29.005Z,29.60
2018-06-15T10:30:58.826Z,29.00
2018-06-15T10:33:28.553Z,29.10
2018-06-15T10:35:58.365Z,27.90
2018-06-15T10:38:27.844Z,28.80
2018-06-15T10:40:58.085Z,29.00
2018-06-15T10:43:27.972Z,29.30
2018-06-15T10:45:57.702Z,29.30
2018-06-15T10:48:26.443Z,29.20
2018-06-15T10:50:55.673Z,29.00
2018-06-15T10:53:24.939Z,29.00
2018-06-15T10:55:53.884Z,28.90
2018-06-15T10:58:23.170Z,28.80
2018-06-15T11:00:52.211Z,28.40
2018-06-15T11:03:23.074Z,28.00
2018-06-15T11:05:52.317Z,27.80
2018-06-15T11:08:21.896Z,27.90
2018-06-15T11:10:51.467Z,27.20
2018-06-15T11:13:21.103Z,26.90
2018-06-15T11:15:50.064Z,26.90
2018-06-15T11:18:19.012Z,27.30
2018-06-15T11:20:48.958Z,26.80
2018-06-15T11:23:18.854Z,26.90
2018-06-15T11:25:48.330Z,27.20
2018-06-15T11:28:18.049Z,26.90
2018-06-15T11:30:48.255Z,27.50
2018-06-15T11:33:17.698Z,27.90
2018-06-15T11:35:47.592Z,28.00
2018-06-15T11:38:16.791Z,28.10
2018-06-15T11:40:45.881Z,28.10
2018-06-15T11:43:15.521Z,28.10
2018-06-15T11:45:44.508Z,28.20
2018-06-15T11:48:15.169Z,28.30
2018-06-15T11:50:44.061Z,28.60
2018-06-15T11:53:13.411Z,28.80
2018-06-15T11:55:42.172Z,27.70
2018-06-15T11:58:11.228Z,28.20
2018-06-15T12:00:40.400Z,28.80
2018-06-15T12:03:09.650Z,29.00
2018-06-15T12:05:39.387Z,28.70
2018-06-15T12:08:08.542Z,28.70
2018-06-15T12:10:38.595Z,28.80
2018-06-15T12:13:07.819Z,27.70
2018-06-15T12:15:37.674Z,28.40
2018-06-15T12:18:06.743Z,28.60
2018-06-15T12:20:35.961Z,28.40
2018-06-15T12:23:08.946Z,28.10
2018-06-15T12:25:38.783Z,28.00
2018-06-15T12:28:08.319Z,28.30
2018-06-15T12:30:37.849Z,28.70
2018-06-15T12:33:07.351Z,29.10
2018-06-15T12:35:39.454Z,28.70
2018-06-15T12:38:10.237Z,28.50
2018-06-15T12:40:41.279Z,28.90
2018-06-15T12:43:14.944Z,28.50
2018-06-15T12:45:43.888Z,28.60
2018-06-15T12:50:42.488Z,29.30
2018-06-15T12:53:13.841Z,29.90
2018-06-15T12:55:46.226Z,29.80
2018-06-15T12:58:15.390Z,29.50
2018-06-15T13:00:44.407Z,29.80
2018-06-15T13:03:15.837Z,30.30
2018-06-15T13:05:45.661Z,30.60
2018-06-15T13:08:15.961Z,31.00
2018-06-15T13:10:45.489Z,31.30
2018-06-15T13:13:14.483Z,31.50
2018-06-15T13:15:43.601Z,30.90
2018-06-15T13:18:12.638Z,30.50
2018-06-15T13:20:42.252Z,31.00
2018-06-15T13:23:11.474Z,31.30
2018-06-15T13:25:40.908Z,31.70
2018-06-15T13:28:09.976Z,31.80
2018-06-15T13:30:38.999Z,31.80
2018-06-15T13:33:09.217Z,31.90
2018-06-15T13:35:40.060Z,32.20
2018-06-15T13:38:09.534Z,32.20
2018-06-15T13:40:38.898Z,32.50
2018-06-15T13:43:08.241Z,32.40
2018-06-15T13:45:39.346Z,31.50
2018-06-15T13:48:09.273Z,31.40
2018-06-15T13:50:38.878Z,32.00
2018-06-15T13:53:08.192Z,32.40
2018-06-15T13:55:37.340Z,33.00
2018-06-15T13:58:06.711Z,33.00
2018-06-15T14:00:36.633Z,32.70
2018-06-15T14:03:06.074Z,33.20
2018-06-15T14:05:35.980Z,33.10
2018-06-15T14:08:06.169Z,33.80
2018-06-15T14:10:37.163Z,32.90
2018-06-15T14:13:06.450Z,33.00
2018-06-15T14:15:35.521Z,32.70
2018-06-15T14:18:05.182Z,30.90
2018-06-15T14:20:34.406Z,31.30
2018-06-15T14:23:04.630Z,31.20
2018-06-15T14:25:34.390Z,31.90
2018-06-15T14:28:03.611Z,32.10
2018-06-15T14:30:34.172Z,32.90
2018-06-15T14:33:03.534Z,32.90
2018-06-15T14:35:34.012Z,32.10
2018-06-15T14:38:04.089Z,32.90
2018-06-15T14:40:35.408Z,33.40
2018-06-15T14:43:04.911Z,33.60
2018-06-15T14:45:34.855Z,34.00
2018-06-15T14:48:04.717Z,33.20
2018-06-15T14:50:33.786Z,33.10
2018-06-15T14:53:03.000Z,33.20
2018-06-15T14:55:33.042Z,31.20
2018-06-15T14:58:02.325Z,30.90
2018-06-15T15:00:32.835Z,30.60
2018-06-15T15:03:02.248Z,29.60
2018-06-15T15:05:31.401Z,29.50
2018-06-15T15:08:00.384Z,29.00
2018-06-15T15:10:29.855Z,28.50
2018-06-15T15:13:00.182Z,28.10
2018-06-15T15:15:33.007Z,28.00
2018-06-15T15:18:04.767Z,27.30
2018-06-15T15:20:35.154Z,27.10
2018-06-15T15:25:42.519Z,26.70
2018-06-15T15:28:12.834Z,26.00
2018-06-15T15:30:42.509Z,25.40
2018-06-15T15:33:11.513Z,25.60
2018-06-15T15:35:40.733Z,25.70
2018-06-15T15:38:09.726Z,25.20
2018-06-15T15:40:39.257Z,24.80
2018-06-15T15:43:11.062Z,24.70
2018-06-15T15:45:46.081Z,24.70
2018-06-15T15:48:20.091Z,24.90
2018-06-15T15:50:49.100Z,24.80
2018-06-15T15:53:18.831Z,24.50
2018-06-15T15:55:48.279Z,24.60
2018-06-15T15:58:18.817Z,24.80
2018-06-15T16:00:54.396Z,24.60
2018-06-15T16:03:24.425Z,24.60
2018-06-15T16:05:53.578Z,24.10
2018-06-15T16:08:22.660Z,24.30
2018-06-15T16:10:52.567Z,24.20
2018-06-15T16:13:22.316Z,23.90
2018-06-15T16:15:51.367Z,24.20
2018-06-15T16:18:20.954Z,24.40
2018-06-15T16:20:50.571Z,24.30
2018-06-15T16:23:19.400Z,24.10
2018-06-15T16:25:49.891Z,23.90
2018-06-15T16:28:19.353Z,23.80
2018-06-15T16:30:48.535Z,23.50
2018-06-15T16:33:18.120Z,23.40
2018-06-15T16:35:47.068Z,23.20
2018-06-15T16:38:16.187Z,23.40
2018-06-15T16:40:46.445Z,23.60
2018-06-15T16:43:15.364Z,23.40
2018-06-15T16:45:44.271Z,23.40
2018-06-15T16:48:13.176Z,23.50
2018-06-15T16:50:42.300Z,23.20
2018-06-15T16:53:11.461Z,23.10
2018-06-15T16:55:40.479Z,23.20
2018-06-15T16:58:09.630Z,23.20
2018-06-15T17:00:39.444Z,22.90
2018-06-15T17:03:09.985Z,22.60
2018-06-15T17:05:38.973Z,22.50
2018-06-15T17:08:08.627Z,22.50
2018-06-15T17:10:38.281Z,22.40
2018-06-15T17:13:07.667Z,22.30
2018-06-15T17:15:37.785Z,22.10
2018-06-15T17:18:07.438Z,21.90
2018-06-15T17:20:37.662Z,22.10
2018-06-15T17:23:12.015Z,21.90
2018-06-15T17:25:44.045Z,21.70
2018-06-15T17:28:14.757Z,21.70
2018-06-15T17:30:47.926Z,21.60
2018-06-15T17:33:16.869Z,21.60
2018-06-15T17:35:46.023Z,21.70
2018-06-15T17:38:18.474Z,21.70
2018-06-15T17:40:49.145Z,21.50
2018-06-15T17:43:18.782Z,21.50
2018-06-15T17:45:48.670Z,21.20
2018-06-15T17:48:17.842Z,21.30
2018-06-15T17:50:48.913Z,21.30
2018-06-15T17:53:20.731Z,21.20
2018-06-15T17:55:50.419Z,21.20
2018-06-15T17:58:20.187Z,21.00
2018-06-15T18:00:50.819Z,20.90
2018-06-15T18:03:20.623Z,21.00
2018-06-15T18:05:50.781Z,20.80
2018-06-15T18:08:20.249Z,20.90
2018-06-15T18:10:49.971Z,20.80
2018-06-15T18:13:19.528Z,20.70
2018-06-15T18:15:49.625Z,20.60
2018-06-15T18:18:18.739Z,20.60
2018-06-15T18:20:47.860Z,20.50
2018-06-15T18:23:17.285Z,20.50
2018-06-15T18:25:46.088Z,20.40
2018-06-15T18:28:17.634Z,20.30
2018-06-15T18:30:47.858Z,20.30
2018-06-15T18:33:17.595Z,20.20
2018-06-15T18:35:46.812Z,20.20
2018-06-15T18:38:15.630Z,20.00
2018-06-15T18:40:45.035Z,20.00
2018-06-15T18:43:14.336Z,19.80
2018-06-15T18:45:43.090Z,19.90
2018-06-15T18:48:12.653Z,19.80
2018-06-15T18:50:41.735Z,19.80
2018-06-15T18:53:10.950Z,19.70
2018-06-15T18:55:40.292Z,19.50
2018-06-15T18:58:09.492Z,19.40
2018-06-15T19:00:39.581Z,19.40
2018-06-15T19:03:08.723Z,19.30
2018-06-15T19:05:38.028Z,19.20
2018-06-15T19:08:07.432Z,19.10
2018-06-15T19:10:37.563Z,19.20
2018-06-15T19:13:06.736Z,19.10
2018-06-15T19:18:05.533Z,18.90
2018-06-15T19:20:35.060Z,18.80
2018-06-15T19:23:04.188Z,18.70
2018-06-15T19:25:33.300Z,18.70
2018-06-15T19:28:02.581Z,18.60
2018-06-15T19:30:31.516Z,18.50
2018-06-15T19:35:29.151Z,18.30
2018-06-15T19:37:58.044Z,18.30
2018-06-15T19:40:27.038Z,18.20
2018-06-15T19:42:56.138Z,18.10
2018-06-15T19:45:26.201Z,18.00
2018-06-15T19:47:56.003Z,17.90
2018-06-15T19:50:25.735Z,17.90
2018-06-15T19:52:54.941Z,17.90
2018-06-15T19:55:24.081Z,17.80
2018-06-15T19:57:53.336Z,17.70
2018-06-15T20:00:22.834Z,17.60
2018-06-15T20:05:22.055Z,17.50
2018-06-15T20:07:50.824Z,17.40
2018-06-15T20:10:19.476Z,17.30
2018-06-15T20:12:48.326Z,17.20
2018-06-15T20:15:17.323Z,17.20
2018-06-15T20:17:46.978Z,17.10
2018-06-15T20:20:16.809Z,17.00
2018-06-15T20:22:45.686Z,17.00
2018-06-15T20:25:14.831Z,16.90
2018-06-15T20:27:44.555Z,16.80
2018-06-15T20:30:14.622Z,16.70
2018-06-15T20:32:43.335Z,16.60
2018-06-15T20:35:12.238Z,16.50
2018-06-15T20:37:41.749Z,16.40
2018-06-15T20:40:11.289Z,16.40
2018-06-15T20:42:40.453Z,16.30
2018-06-15T20:45:09.517Z,16.10
2018-06-15T20:47:40.295Z,16.10
2018-06-15T20:50:10.526Z,16.00
2018-06-15T20:52:40.467Z,16.00
2018-06-15T20:55:10.981Z,15.90
2018-06-15T20:57:40.970Z,15.90
2018-06-15T21:00:10.129Z,15.80
2018-06-15T21:02:39.502Z,15.80
2018-06-15T21:05:09.479Z,15.70
2018-06-15T21:07:39.908Z,15.70
2018-06-15T21:10:08.791Z,15.60
2018-06-15T21:12:37.461Z,15.60
2018-06-15T21:15:07.992Z,15.50
2018-06-15T21:17:36.827Z,15.40
2018-06-15T21:20:05.799Z,15.40
2018-06-15T21:22:35.899Z,15.40
2018-06-15T21:25:05.022Z,15.30
2018-06-15T21:27:33.875Z,15.30
2018-06-15T21:30:04.819Z,15.20
2018-06-15T21:32:34.330Z,15.20
2018-06-15T21:35:04.197Z,15.10
2018-06-15T21:37:33.281Z,15.00
2018-06-15T21:40:02.035Z,15.00
2018-06-15T21:42:31.152Z,14.90
2018-06-15T21:45:00.298Z,14.90
2018-06-15T21:49:58.709Z,14.80
2018-06-15T21:52:27.467Z,14.70
2018-06-15T21:57:25.470Z,14.50
2018-06-15T21:59:54.961Z,14.50
2018-06-15T22:02:24.407Z,14.50
2018-06-15T22:04:53.637Z,14.40
2018-06-15T22:07:22.698Z,14.40
2018-06-15T22:09:51.608Z,14.30
2018-06-15T22:12:21.116Z,14.30
2018-06-15T22:14:50.260Z,14.20
2018-06-15T22:17:19.673Z,14.10
2018-06-15T22:19:50.624Z,14.10
2018-06-15T22:22:20.745Z,14.10
2018-06-15T22:24:49.930Z,14.10
2018-06-15T22:27:19.354Z,14.00
2018-06-15T22:29:48.772Z,14.00
2018-06-15T22:32:18.280Z,14.00
2018-06-15T22:34:47.341Z,14.00
2018-06-15T22:37:26.819Z,14.00
2018-06-15T22:39:55.624Z,13.90
2018-06-15T22:42:25.521Z,13.80
2018-06-15T22:44:55.217Z,13.80
2018-06-15T22:47:24.117Z,13.80
2018-06-15T22:49:52.962Z,13.80
2018-06-15T22:52:22.720Z,13.70
2018-06-15T22:54:52.316Z,13.70
2018-06-15T22:57:21.894Z,13.60
2018-06-15T22:59:51.656Z,13.50
2018-06-15T23:02:20.539Z,13.50
2018-06-15T23:04:50.157Z,13.50
2018-06-15T23:07:19.597Z,13.40
2018-06-15T23:09:48.502Z,13.30
2018-06-15T23:12:17.884Z,13.30
2018-06-15T23:14:47.638Z,13.30
2018-06-15T23:17:16.840Z,13.20
2018-06-15T23:19:46.721Z,13.20
2018-06-15T23:22:15.372Z,13.10
2018-06-15T23:24:43.981Z,13.10
2018-06-15T23:27:13.134Z,13.10
2018-06-15T23:29:42.323Z,13.00
2018-06-15T23:32:11.272Z,12.90
2018-06-15T23:34:40.291Z,12.90
2018-06-15T23:37:09.239Z,12.80
2018-06-15T23:39:38.325Z,12.70
2018-06-15T23:42:07.842Z,12.70
2018-06-15T23:44:37.309Z,12.70
2018-06-15T23:47:06.357Z,12.60
2018-06-15T23:49:36.798Z,12.50
2018-06-15T23:52:08.550Z,12.50
2018-06-15T23:57:13.234Z,12.40
2018-06-15T23:59:42.616Z,12.50
